createdAt,value
2023-06-02T00:03:38.033Z,100889.60
2023-06-02T00:06:08.347Z,100893.92
2023-06-02T00:08:38.109Z,100893.36
2023-06-02T00:11:07.540Z,100889.77
2023-06-02T00:13:36.065Z,100887.92
2023-06-02T00:16:05.310Z,100881.23
2023-06-02T00:18:34.255Z,100872.42
2023-06-02T00:21:02.513Z,100872.79
2023-06-02T00:23:31.530Z,100879.23
2023-06-02T00:26:00.674Z,100887.31
2023-06-02T00:28:29.647Z,100892.20
2023-06-02T00:30:58.804Z,100893.49
2023-06-02T00:33:27.498Z,100892.98
2023-06-02T00:35:55.730Z,100891.94
2023-06-02T00:38:24.318Z,100896.63
2023-06-02T00:40:52.514Z,100893.78
2023-06-02T00:43:20.652Z,100895.61
2023-06-02T00:45:49.708Z,100885.39
2023-06-02T00:48:17.990Z,100878.98
2023-06-02T00:50:46.377Z,100875.77
2023-06-02T00:53:15.838Z,100873.49
2023-06-02T00:55:45.353Z,100870.10
2023-06-02T00:58:15.233Z,100862.95
2023-06-02T01:00:44.834Z,100859.73
2023-06-02T01:03:16.023Z,100862.97
2023-06-02T01:05:46.211Z,100861.87
2023-06-02T01:08:17.492Z,100859.36
2023-06-02T01:10:45.929Z,100863.31
2023-06-02T01:13:14.951Z,100857.02
2023-06-02T01:15:46.435Z,100854.52
2023-06-02T01:18:16.512Z,100853.23
2023-06-02T01:20:47.664Z,100850.02
2023-06-02T01:23:33.747Z,100849.69
2023-06-02T01:26:02.805Z,100849.52
2023-06-02T01:28:31.140Z,100843.23
2023-06-02T01:31:43.139Z,100846.28
2023-06-02T01:34:18.465Z,100845.59
2023-06-02T01:36:50.374Z,100846.31
2023-06-02T01:39:19.739Z,100842.18
2023-06-02T01:41:50.700Z,100845.80
2023-06-02T01:44:20.751Z,100847.80
2023-06-02T01:46:50.232Z,100851.58
2023-06-02T01:49:19.129Z,100847.81
2023-06-02T01:51:48.332Z,100846.77
2023-06-02T01:54:17.230Z,100848.03
2023-06-02T01:56:45.343Z,100853.59
2023-06-02T01:59:13.472Z,100852.55
2023-06-02T02:01:41.914Z,100853.66
2023-06-02T02:04:11.068Z,100849.73
2023-06-02T02:06:40.406Z,100849.06
2023-06-02T02:09:08.690Z,100852.86
2023-06-02T02:11:37.861Z,100852.00
2023-06-02T02:14:06.190Z,100848.44
2023-06-02T02:16:37.269Z,100844.55
2023-06-02T02:19:05.580Z,100838.30
2023-06-02T02:21:34.978Z,100839.58
2023-06-02T02:24:04.475Z,100841.75
2023-06-02T02:26:33.966Z,100845.19
2023-06-02T02:29:02.699Z,100845.80
2023-06-02T02:31:32.294Z,100843.33
2023-06-02T02:34:00.692Z,100843.18
2023-06-02T02:36:28.948Z,100839.83
2023-06-02T02:38:57.977Z,100839.34
2023-06-02T02:41:27.201Z,100838.09
2023-06-02T02:43:55.909Z,100834.94
2023-06-02T02:46:24.753Z,100833.91
2023-06-02T02:48:53.140Z,100834.13
2023-06-02T02:51:21.382Z,100830.38
2023-06-02T02:53:49.693Z,100831.33
2023-06-02T02:56:17.986Z,100833.11
2023-06-02T02:58:46.342Z,100831.70
2023-06-02T03:01:14.898Z,100829.95
2023-06-02T03:03:43.782Z,100829.29
2023-06-02T03:06:12.058Z,100828.60
2023-06-02T03:08:41.148Z,100829.70
2023-06-02T03:11:12.503Z,100826.88
2023-06-02T03:13:41.467Z,100825.31
2023-06-02T03:16:10.472Z,100824.64
2023-06-02T03:18:39.195Z,100826.09
2023-06-02T03:21:07.427Z,100825.55
2023-06-02T03:23:36.148Z,100828.30
2023-06-02T03:26:05.000Z,100824.36
2023-06-02T03:28:34.201Z,100822.23
2023-06-02T03:31:03.056Z,100818.83
2023-06-02T03:33:32.032Z,100827.45
2023-06-02T03:36:00.747Z,100823.56
2023-06-02T03:38:29.352Z,100819.63
2023-06-02T03:40:57.484Z,100818.90
2023-06-02T03:43:25.724Z,100816.98
2023-06-02T03:45:53.915Z,100818.23
2023-06-02T03:48:22.701Z,100818.44
2023-06-02T03:50:52.301Z,100814.50
2023-06-02T03:53:21.682Z,100819.02
2023-06-02T03:55:50.331Z,100822.83
2023-06-02T03:58:18.606Z,100824.28
2023-06-02T04:00:47.294Z,100818.95
2023-06-02T04:03:17.452Z,100822.38
2023-06-02T04:05:46.344Z,100825.46
2023-06-02T04:08:14.694Z,100825.70
2023-06-02T04:10:42.873Z,100827.17
2023-06-02T04:13:11.409Z,100826.31
2023-06-02T04:15:39.588Z,100827.77
2023-06-02T04:18:08.412Z,100826.17
2023-06-02T04:20:36.911Z,100826.89
2023-06-02T04:23:06.136Z,100826.75
2023-06-02T04:25:36.814Z,100827.28
2023-06-02T04:28:05.554Z,100829.81
2023-06-02T04:30:34.563Z,100830.21
2023-06-02T04:33:02.824Z,100830.04
2023-06-02T04:35:31.823Z,100831.67
2023-06-02T04:38:00.419Z,100828.13
2023-06-02T04:40:29.977Z,100825.08
2023-06-02T04:43:00.550Z,100828.15
2023-06-02T04:45:29.853Z,100827.81
2023-06-02T04:47:59.427Z,100823.50
2023-06-02T04:50:28.465Z,100822.63
2023-06-02T04:52:58.064Z,100823.02
2023-06-02T04:55:30.057Z,100826.08
2023-06-02T04:57:59.115Z,100826.10
2023-06-02T05:00:28.728Z,100823.95
2023-06-02T05:02:57.635Z,100832.36
2023-06-02T05:05:27.154Z,100829.84
2023-06-02T05:07:55.727Z,100836.08
2023-06-02T05:10:24.086Z,100837.87
2023-06-02T05:12:52.503Z,100834.84
2023-06-02T05:15:21.785Z,100838.93
2023-06-02T05:17:50.104Z,100837.29
2023-06-02T05:20:19.066Z,100839.29
2023-06-02T05:22:48.068Z,100843.04
2023-06-02T05:25:16.795Z,100843.58
2023-06-02T05:27:45.119Z,100848.23
2023-06-02T05:30:13.568Z,100848.23
2023-06-02T05:32:42.052Z,100852.30
2023-06-02T05:35:10.343Z,100852.27
2023-06-02T05:37:38.617Z,100851.54
2023-06-02T05:40:07.827Z,100852.95
2023-06-02T05:42:36.012Z,100853.64
2023-06-02T05:45:04.796Z,100857.92
2023-06-02T05:47:33.772Z,100857.02
2023-06-02T05:50:03.597Z,100858.44
2023-06-02T05:52:32.019Z,100867.20
2023-06-02T05:55:00.220Z,100872.57
2023-06-02T05:57:29.094Z,100875.95
2023-06-02T05:59:57.239Z,100871.93
2023-06-02T06:02:25.566Z,100870.27
2023-06-02T06:04:54.378Z,100870.94
2023-06-02T06:07:22.745Z,100870.52
2023-06-02T06:09:51.476Z,100868.14
2023-06-02T06:12:20.147Z,100868.02
2023-06-02T06:14:48.355Z,100868.07
2023-06-02T06:17:16.757Z,100870.48
2023-06-02T06:19:45.222Z,100873.38
2023-06-02T06:22:14.394Z,100874.86
2023-06-02T06:24:43.596Z,100874.85
2023-06-02T06:27:13.238Z,100878.05
2023-06-02T06:29:41.589Z,100883.09
2023-06-02T06:32:10.429Z,100878.06
2023-06-02T06:34:39.295Z,100877.56
2023-06-02T06:37:07.518Z,100871.29
2023-06-02T06:39:36.356Z,100874.35
2023-06-02T06:42:04.876Z,100871.64
2023-06-02T06:44:33.788Z,100872.14
2023-06-02T06:47:03.160Z,100873.00
2023-06-02T06:49:31.533Z,100873.76
2023-06-02T06:52:00.327Z,100872.42
2023-06-02T06:54:29.949Z,100879.91
2023-06-02T06:56:59.849Z,100887.55
2023-06-02T06:59:28.190Z,100891.92
2023-06-02T07:01:56.433Z,100894.70
2023-06-02T07:04:24.793Z,100893.91
2023-06-02T07:06:53.053Z,100901.59
2023-06-02T07:09:21.485Z,100903.86
2023-06-02T07:11:49.742Z,100906.43
2023-06-02T07:14:18.921Z,100906.48
2023-06-02T07:16:48.297Z,100909.86
2023-06-02T07:19:16.647Z,100911.02
2023-06-02T07:21:45.075Z,100911.11
2023-06-02T07:24:14.398Z,100903.23
2023-06-02T07:26:44.572Z,100905.94
2023-06-02T07:29:16.701Z,100914.74
2023-06-02T07:31:45.481Z,100913.56
2023-06-02T07:34:13.907Z,100915.70
2023-06-02T07:36:42.828Z,100917.84
2023-06-02T07:39:11.221Z,100914.95
2023-06-02T07:41:40.582Z,100913.55
2023-06-02T07:44:09.399Z,100905.19
2023-06-02T07:46:38.167Z,100905.95
2023-06-02T07:49:06.562Z,100903.82
2023-06-02T07:51:34.906Z,100904.96
2023-06-02T07:54:03.405Z,100905.74
2023-06-02T07:56:31.697Z,100907.94
2023-06-02T07:59:01.121Z,100907.93
2023-06-02T08:01:30.550Z,100905.70
2023-06-02T08:03:59.009Z,100907.46
2023-06-02T08:06:27.410Z,100906.48
2023-06-02T08:08:56.541Z,100902.08
2023-06-02T08:11:25.096Z,100898.14
2023-06-02T08:13:53.571Z,100896.65
2023-06-02T08:16:28.748Z,100895.43
2023-06-02T08:18:58.760Z,100893.60
2023-06-02T08:21:27.659Z,100894.42
2023-06-02T08:23:56.656Z,100898.41
2023-06-02T08:26:24.914Z,100903.10
2023-06-02T08:28:53.681Z,100903.70
2023-06-02T08:31:22.311Z,100902.71
2023-06-02T08:33:51.610Z,100904.21
2023-06-02T08:36:21.089Z,100905.91
2023-06-02T08:38:50.627Z,100911.09
2023-06-02T08:41:19.346Z,100914.59
2023-06-02T08:43:47.995Z,100914.48
2023-06-02T08:46:17.296Z,100912.16
2023-06-02T08:48:48.369Z,100911.46
2023-06-02T08:51:22.553Z,100913.92
2023-06-02T08:53:52.059Z,100915.84
2023-06-02T08:56:20.894Z,100917.09
2023-06-02T08:58:49.499Z,100916.96
2023-06-02T09:01:18.121Z,100916.98
2023-06-02T09:03:49.687Z,100916.30
2023-06-02T09:06:23.434Z,100917.42
2023-06-02T09:09:00.483Z,100916.48
2023-06-02T09:11:31.316Z,100918.51
2023-06-02T09:13:59.984Z,100919.98
2023-06-02T09:16:41.189Z,100923.79
2023-06-02T09:19:09.461Z,100928.65
2023-06-02T09:21:37.692Z,100928.63
2023-06-02T09:26:37.961Z,100928.49
2023-06-02T09:29:14.403Z,100930.55
2023-06-02T09:31:46.641Z,100923.58
2023-06-02T09:34:16.973Z,100924.48
2023-06-02T09:36:48.082Z,100923.09
2023-06-02T09:39:32.560Z,100924.22
2023-06-02T09:42:02.455Z,100925.18
2023-06-02T09:44:30.947Z,100926.30
2023-06-02T09:47:01.182Z,100925.77
2023-06-02T09:49:42.673Z,100923.67
2023-06-02T09:52:19.139Z,100924.81
2023-06-02T09:54:49.302Z,100924.15
2023-06-02T09:57:18.070Z,100922.27
2023-06-02T09:59:47.133Z,100919.20
2023-06-02T10:02:17.565Z,100920.28
2023-06-02T10:04:46.380Z,100919.33
2023-06-02T10:07:32.990Z,100920.26
2023-06-02T10:10:10.295Z,100923.23
2023-06-02T10:12:59.314Z,100924.20
2023-06-02T10:15:56.402Z,100930.40
2023-06-02T10:19:15.931Z,100928.28
2023-06-02T10:21:56.414Z,100927.80
2023-06-02T10:24:45.649Z,100930.33
2023-06-02T10:27:40.001Z,100931.85
2023-06-02T10:30:09.006Z,100927.16
2023-06-02T10:32:51.170Z,100926.52
2023-06-02T10:35:19.941Z,100920.88
2023-06-02T10:38:08.448Z,100920.84
2023-06-02T10:40:50.779Z,100916.25
2023-06-02T10:43:19.461Z,100914.70
2023-06-02T10:45:47.730Z,100912.84
2023-06-02T10:48:35.708Z,100911.42
2023-06-02T10:51:05.970Z,100906.53
2023-06-02T10:53:34.724Z,100907.29
2023-06-02T10:56:41.847Z,100904.41
2023-06-02T10:59:12.132Z,100901.63
2023-06-02T11:01:52.403Z,100898.20
2023-06-02T11:04:27.471Z,100899.95
2023-06-02T11:07:15.648Z,100902.96
2023-06-02T11:09:43.926Z,100906.00
2023-06-02T11:12:13.331Z,100901.65
2023-06-02T11:15:05.810Z,100901.96
2023-06-02T11:17:35.914Z,100903.56
2023-06-02T11:20:05.517Z,100905.63
2023-06-02T11:22:37.633Z,100910.71
2023-06-02T11:25:06.637Z,100913.41
2023-06-02T11:27:39.429Z,100911.95
2023-06-02T11:30:13.939Z,100916.13
2023-06-02T11:32:43.412Z,100915.96
2023-06-02T11:35:12.315Z,100912.59
2023-06-02T11:37:43.169Z,100911.37
2023-06-02T11:40:12.802Z,100908.52
2023-06-02T11:42:46.071Z,100913.86
2023-06-02T11:45:27.915Z,100916.36
2023-06-02T11:48:06.074Z,100913.36
2023-06-02T11:50:35.983Z,100909.48
2023-06-02T11:53:11.950Z,100909.52
2023-06-02T11:55:40.649Z,100906.09
2023-06-02T11:58:20.901Z,100909.58
2023-06-02T12:00:51.781Z,100903.17
2023-06-02T12:03:20.353Z,100909.85
2023-06-02T12:05:50.036Z,100907.89
2023-06-02T12:08:20.532Z,100905.14
2023-06-02T12:10:50.164Z,100904.55
2023-06-02T12:13:25.447Z,100898.54
2023-06-02T12:15:55.022Z,100895.24
2023-06-02T12:18:34.055Z,100891.57
2023-06-02T12:21:03.308Z,100898.88
2023-06-02T12:23:47.793Z,100903.78
2023-06-02T12:26:17.348Z,100911.46
2023-06-02T12:28:46.937Z,100909.79
2023-06-02T12:31:21.805Z,100905.96
2023-06-02T12:33:50.644Z,100904.51
2023-06-02T12:36:18.916Z,100904.19
2023-06-02T12:38:48.388Z,100911.42
2023-06-02T12:41:16.674Z,100915.48
2023-06-02T12:43:45.319Z,100914.48
2023-06-02T12:46:14.341Z,100914.45
2023-06-02T12:48:43.188Z,100914.64
2023-06-02T12:51:11.704Z,100912.43
2023-06-02T12:53:40.448Z,100910.05
2023-06-02T12:56:09.224Z,100903.16
2023-06-02T12:58:39.286Z,100906.82
2023-06-02T13:01:07.847Z,100904.83
2023-06-02T13:03:36.638Z,100900.73
2023-06-02T13:06:09.047Z,100900.23
2023-06-02T13:08:38.533Z,100897.42
2023-06-02T13:11:06.885Z,100897.50
2023-06-02T13:13:37.581Z,100893.85
2023-06-02T13:16:06.454Z,100898.97
2023-06-02T13:18:34.940Z,100893.76
2023-06-02T13:21:03.271Z,100892.29
2023-06-02T13:23:31.840Z,100892.68
2023-06-02T13:26:00.228Z,100895.44
2023-06-02T13:28:29.195Z,100886.73
2023-06-02T13:30:58.858Z,100888.48
2023-06-02T13:33:27.280Z,100884.42
2023-06-02T13:35:55.860Z,100885.70
2023-06-02T13:38:24.331Z,100885.98
2023-06-02T13:40:52.635Z,100877.64
2023-06-02T13:43:22.089Z,100872.31
2023-06-02T13:45:52.196Z,100867.64
2023-06-02T13:48:20.906Z,100869.25
2023-06-02T13:50:49.253Z,100871.68
2023-06-02T13:53:17.631Z,100866.00
2023-06-02T13:55:45.891Z,100864.43
2023-06-02T13:58:14.308Z,100868.84
2023-06-02T14:00:43.081Z,100869.63
2023-06-02T14:03:11.608Z,100872.31
2023-06-02T14:05:40.819Z,100873.65
2023-06-02T14:08:09.359Z,100875.02
2023-06-02T14:10:37.588Z,100874.90
2023-06-02T14:13:05.928Z,100874.04
2023-06-02T14:15:34.912Z,100869.91
2023-06-02T14:18:03.318Z,100866.79
2023-06-02T14:20:31.590Z,100867.50
2023-06-02T14:22:59.698Z,100864.30
2023-06-02T14:25:27.896Z,100864.20
2023-06-02T14:27:56.595Z,100865.22
2023-06-02T14:30:25.403Z,100864.00
2023-06-02T14:32:53.753Z,100859.23
2023-06-02T14:35:22.745Z,100854.30
2023-06-02T14:37:50.958Z,100851.56
2023-06-02T14:40:19.777Z,100853.98
2023-06-02T14:42:48.710Z,100851.92
2023-06-02T14:45:16.906Z,100851.08
2023-06-02T14:47:45.117Z,100848.81
2023-06-02T14:50:13.775Z,100849.23
2023-06-02T14:52:41.879Z,100844.45
2023-06-02T14:55:10.276Z,100839.19
2023-06-02T14:57:38.890Z,100836.58
2023-06-02T15:00:08.095Z,100837.77
2023-06-02T15:02:36.345Z,100831.48
2023-06-02T15:05:05.406Z,100828.00
2023-06-02T15:07:33.637Z,100828.45
2023-06-02T15:10:01.714Z,100824.54
2023-06-02T15:12:32.263Z,100825.88
2023-06-02T15:15:00.588Z,100825.89
2023-06-02T15:17:29.037Z,100825.56
2023-06-02T15:19:57.470Z,100824.96
2023-06-02T15:22:26.294Z,100822.41
2023-06-02T15:24:54.531Z,100820.22
2023-06-02T15:27:22.928Z,100815.83
2023-06-02T15:29:53.288Z,100813.13
2023-06-02T15:32:21.967Z,100815.72
2023-06-02T15:34:50.302Z,100816.03
2023-06-02T15:37:18.508Z,100813.48
2023-06-02T15:39:46.650Z,100813.66
2023-06-02T15:42:14.850Z,100812.25
2023-06-02T15:44:43.131Z,100812.88
2023-06-02T15:47:11.293Z,100812.12
2023-06-02T15:49:39.894Z,100809.56
2023-06-02T15:52:08.319Z,100809.79
2023-06-02T15:54:37.022Z,100806.42
2023-06-02T15:57:05.729Z,100806.09
2023-06-02T15:59:33.984Z,100804.20
2023-06-02T16:02:04.955Z,100806.18
2023-06-02T16:04:33.353Z,100804.10
2023-06-02T16:07:01.702Z,100799.27
2023-06-02T16:09:31.959Z,100796.87
2023-06-02T16:12:00.933Z,100799.34
2023-06-02T16:14:29.325Z,100798.80
2023-06-02T16:16:57.600Z,100797.11
2023-06-02T16:19:26.666Z,100798.76
2023-06-02T16:21:55.661Z,100792.80
2023-06-02T16:24:24.116Z,100789.19
2023-06-02T16:26:52.452Z,100785.20
2023-06-02T16:29:20.598Z,100787.16
2023-06-02T16:31:48.768Z,100786.86
2023-06-02T16:34:17.368Z,100787.20
2023-06-02T16:36:45.625Z,100785.79
2023-06-02T16:39:13.753Z,100785.95
2023-06-02T16:41:43.332Z,100786.70
2023-06-02T16:44:12.322Z,100783.70
2023-06-02T16:46:40.776Z,100782.84
2023-06-02T16:49:12.183Z,100785.14
2023-06-02T16:51:40.674Z,100781.66
2023-06-02T16:54:08.805Z,100780.65
2023-06-02T16:56:37.153Z,100777.70
2023-06-02T16:59:05.244Z,100777.67
2023-06-02T17:01:33.948Z,100777.41
2023-06-02T17:04:02.378Z,100785.08
2023-06-02T17:06:31.408Z,100783.19
2023-06-02T17:08:59.601Z,100783.98
2023-06-02T17:11:32.491Z,100785.27
2023-06-02T17:14:01.829Z,100789.59
2023-06-02T17:16:30.279Z,100787.61
2023-06-02T17:18:59.299Z,100788.05
2023-06-02T17:21:27.704Z,100788.58
2023-06-02T17:23:56.579Z,100788.48
2023-06-02T17:26:25.444Z,100793.52
2023-06-02T17:28:53.606Z,100791.70
2023-06-02T17:31:23.143Z,100790.00
2023-06-02T17:33:51.925Z,100792.23
2023-06-02T17:36:20.084Z,100790.73
2023-06-02T17:38:48.250Z,100789.48
2023-06-02T17:41:16.555Z,100793.10
2023-06-02T17:43:45.696Z,100802.27
2023-06-02T17:46:14.114Z,100801.89
2023-06-02T17:48:44.101Z,100802.60
2023-06-02T17:51:12.243Z,100808.27
2023-06-02T17:53:43.527Z,100813.33
2023-06-02T17:56:11.826Z,100812.32
2023-06-02T17:58:40.863Z,100815.20
2023-06-02T18:01:09.862Z,100816.67
2023-06-02T18:03:39.219Z,100821.81
2023-06-02T18:06:07.760Z,100820.44
2023-06-02T18:08:36.307Z,100823.54
2023-06-02T18:11:05.408Z,100825.86
2023-06-02T18:13:34.073Z,100830.92
2023-06-02T18:16:02.600Z,100834.62
2023-06-02T18:18:30.966Z,100835.77
2023-06-02T18:20:59.646Z,100836.92
2023-06-02T18:23:28.492Z,100837.74
2023-06-02T18:25:56.917Z,100843.61
2023-06-02T18:28:26.181Z,100840.30
2023-06-02T18:30:54.882Z,100839.08
2023-06-02T18:33:23.169Z,100831.20
2023-06-02T18:35:52.468Z,100835.14
2023-06-02T18:38:20.888Z,100832.77
2023-06-02T18:40:49.195Z,100834.51
2023-06-02T18:43:17.456Z,100835.63
2023-06-02T18:45:45.653Z,100840.66
2023-06-02T18:48:14.686Z,100847.80
2023-06-02T18:50:43.544Z,100848.68
2023-06-02T18:53:12.090Z,100852.69
2023-06-02T18:55:40.320Z,100857.06
2023-06-02T18:58:08.548Z,100854.84
2023-06-02T19:00:38.048Z,100856.27
2023-06-02T19:03:06.457Z,100857.77
2023-06-02T19:05:35.796Z,100856.12
2023-06-02T19:08:04.342Z,100856.84
2023-06-02T19:10:32.638Z,100857.81
2023-06-02T19:13:00.948Z,100858.11
2023-06-02T19:15:29.364Z,100863.91
2023-06-02T19:17:57.728Z,100862.32
2023-06-02T19:20:26.401Z,100864.00
2023-06-02T19:22:55.086Z,100867.40
2023-06-02T19:25:23.382Z,100870.99
2023-06-02T19:27:51.664Z,100874.13
2023-06-02T19:30:19.963Z,100871.34
2023-06-02T19:32:48.338Z,100872.95
2023-06-02T19:35:18.766Z,100873.16
2023-06-02T19:37:48.170Z,100871.98
2023-06-02T19:40:16.420Z,100872.85
2023-06-02T19:42:45.003Z,100878.21
2023-06-02T19:45:14.225Z,100874.18
2023-06-02T19:47:42.682Z,100879.20
2023-06-02T19:50:11.210Z,100881.35
2023-06-02T19:52:39.794Z,100885.95
2023-06-02T19:55:09.013Z,100888.78
2023-06-02T19:57:40.246Z,100887.48
2023-06-02T20:00:09.326Z,100892.38
2023-06-02T20:02:38.911Z,100896.12
2023-06-02T20:05:07.728Z,100897.91
2023-06-02T20:07:35.884Z,100900.39
2023-06-02T20:10:05.524Z,100901.27
2023-06-02T20:12:35.058Z,100901.13
2023-06-02T20:15:07.540Z,100904.54
2023-06-02T20:17:36.910Z,100907.45
2023-06-02T20:20:06.305Z,100906.96
2023-06-02T20:22:34.511Z,100910.61
2023-06-02T20:25:03.409Z,100907.98
2023-06-02T20:27:31.661Z,100904.02
2023-06-02T20:30:00.238Z,100909.01
2023-06-02T20:32:29.262Z,100915.45
2023-06-02T20:34:57.734Z,100914.84
2023-06-02T20:37:25.870Z,100913.73
2023-06-02T20:39:54.160Z,100916.20
2023-06-02T20:42:22.368Z,100918.01
2023-06-02T20:44:50.606Z,100920.63
2023-06-02T20:47:18.790Z,100926.46
2023-06-02T20:49:46.895Z,100929.82
2023-06-02T20:52:15.240Z,100933.36
2023-06-02T20:54:44.284Z,100931.92
2023-06-02T20:57:12.598Z,100928.02
2023-06-02T20:59:41.112Z,100927.41
2023-06-02T21:02:09.421Z,100929.70
2023-06-02T21:04:37.950Z,100930.89
2023-06-02T21:07:07.097Z,100932.67
2023-06-02T21:09:35.319Z,100935.38
2023-06-02T21:12:04.285Z,100935.83
2023-06-02T21:14:32.552Z,100932.30
2023-06-02T21:17:00.793Z,100929.61
2023-06-02T21:19:29.233Z,100930.13
2023-06-02T21:21:57.636Z,100932.10
2023-06-02T21:24:25.907Z,100929.55
2023-06-02T21:26:54.008Z,100930.94
2023-06-02T21:29:22.064Z,100927.57
2023-06-02T21:31:50.319Z,100928.63
2023-06-02T21:34:18.988Z,100934.96
2023-06-02T21:36:47.163Z,100936.15
2023-06-02T21:39:15.340Z,100935.92
2023-06-02T21:41:43.512Z,100936.65
2023-06-02T21:44:11.890Z,100942.59
2023-06-02T21:46:40.561Z,100946.55
2023-06-02T21:49:08.723Z,100943.88
2023-06-02T21:51:36.944Z,100940.66
2023-06-02T21:54:05.862Z,100936.55
2023-06-02T21:56:34.799Z,100939.58
2023-06-02T21:59:03.682Z,100937.40
2023-06-02T22:01:32.158Z,100938.11
2023-06-02T22:04:00.732Z,100940.96
2023-06-02T22:06:28.999Z,100938.94
2023-06-02T22:08:57.553Z,100939.83
2023-06-02T22:11:25.818Z,100939.10
2023-06-02T22:13:54.034Z,100938.05
2023-06-02T22:16:22.440Z,100932.92
2023-06-02T22:18:51.310Z,100936.33
2023-06-02T22:21:29.614Z,100933.99
2023-06-02T22:24:18.168Z,100932.55
2023-06-02T22:26:54.082Z,100932.38
2023-06-02T22:29:27.061Z,100934.03
2023-06-02T22:31:56.941Z,100936.94
2023-06-02T22:34:25.229Z,100939.30
2023-06-02T22:36:54.770Z,100933.36
2023-06-02T22:39:22.970Z,100932.05
2023-06-02T22:41:52.598Z,100932.59
2023-06-02T22:44:21.481Z,100934.90
2023-06-02T22:46:49.879Z,100939.59
2023-06-02T22:49:18.128Z,100940.00
2023-06-02T22:51:46.247Z,100941.56
2023-06-02T22:54:14.641Z,100937.20
2023-06-02T22:56:43.372Z,100935.20
2023-06-02T22:59:12.420Z,100930.39
2023-06-02T23:01:40.643Z,100926.80
2023-06-02T23:04:09.209Z,100928.02
2023-06-02T23:06:38.377Z,100931.59
2023-06-02T23:09:06.926Z,100929.07
2023-06-02T23:11:35.638Z,100928.55
2023-06-02T23:14:07.454Z,100924.04
2023-06-02T23:16:35.650Z,100921.73
2023-06-02T23:19:03.852Z,100922.10
2023-06-02T23:21:32.958Z,100923.02
2023-06-02T23:24:01.211Z,100919.44
2023-06-02T23:26:29.433Z,100920.65
2023-06-02T23:28:57.828Z,100919.38
2023-06-02T23:31:26.001Z,100911.98
2023-06-02T23:33:55.496Z,100911.05
2023-06-02T23:36:24.249Z,100913.03
2023-06-02T23:38:52.455Z,100913.92
2023-06-02T23:41:20.725Z,100910.91
2023-06-02T23:43:48.881Z,100913.66
2023-06-02T23:46:17.385Z,100913.16
2023-06-02T23:48:46.070Z,100916.38
2023-06-02T23:51:14.427Z,100914.71
2023-06-02T23:53:42.529Z,100911.29
2023-06-02T23:56:10.687Z,100910.58
2023-06-02T23:58:39.236Z,100912.20
